createdAt,value
2022-08-17T00:00:34.482Z,3.73
2022-08-17T00:03:10.061Z,4.73
2022-08-17T00:05:42.693Z,3.27
2022-08-17T00:08:11.072Z,3.97
2022-08-17T00:10:39.299Z,3.70
2022-08-17T00:13:09.227Z,3.53
2022-08-17T00:15:39.059Z,3.67
2022-08-17T00:19:02.140Z,4.10
2022-08-17T00:20:56.644Z,3.43
2022-08-17T00:23:25.537Z,3.30
2022-08-17T00:25:54.466Z,4.33
2022-08-17T00:28:22.605Z,3.90
2022-08-17T00:30:53.692Z,4.57
2022-08-17T00:33:25.890Z,3.70
2022-08-17T00:35:55.045Z,3.13
2022-08-17T00:38:24.421Z,3.63
2022-08-17T00:40:59.049Z,3.40
2022-08-17T00:43:32.103Z,3.60
2022-08-17T00:46:03.954Z,3.47
2022-08-17T00:48:33.121Z,3.70
2022-08-17T00:51:08.028Z,3.40
2022-08-17T00:53:39.783Z,3.60
2022-08-17T00:56:10.395Z,3.60
2022-08-17T00:58:39.308Z,3.33
2022-08-17T01:01:12.057Z,3.57
2022-08-17T01:03:49.616Z,3.40
2022-08-17T01:06:18.105Z,4.43
2022-08-17T01:08:46.532Z,4.03
2022-08-17T01:11:15.054Z,3.27
2022-08-17T01:13:45.207Z,3.80
2022-08-17T01:16:17.378Z,3.20
2022-08-17T01:18:48.858Z,3.30
2022-08-17T01:21:23.356Z,2.90
2022-08-17T01:23:53.068Z,3.90
2022-08-17T01:26:22.345Z,3.30
2022-08-17T01:28:54.416Z,3.60
2022-08-17T01:31:26.383Z,4.37
2022-08-17T01:33:54.561Z,4.17
2022-08-17T01:36:22.959Z,3.93
2022-08-17T01:38:52.740Z,3.27
2022-08-17T01:41:23.179Z,3.43
2022-08-17T01:43:55.712Z,4.50
2022-08-17T01:46:27.964Z,3.70
2022-08-17T01:48:57.999Z,3.90
2022-08-17T01:51:30.220Z,3.90
2022-08-17T01:54:02.281Z,3.60
2022-08-17T01:56:32.668Z,4.50
2022-08-17T01:59:01.429Z,3.50
2022-08-17T02:01:31.696Z,3.40
2022-08-17T02:04:01.136Z,3.70
2022-08-17T02:06:45.199Z,4.20
2022-08-17T02:09:23.277Z,4.20
2022-08-17T02:11:54.931Z,4.00
2022-08-17T02:14:25.228Z,4.03
2022-08-17T02:16:54.412Z,4.10
2022-08-17T02:19:22.989Z,3.87
2022-08-17T02:21:53.727Z,4.07
2022-08-17T02:25:01.075Z,4.33
2022-08-17T02:27:15.176Z,3.63
2022-08-17T02:29:43.256Z,3.97
2022-08-17T02:32:25.317Z,3.93
2022-08-17T02:34:56.330Z,3.50
2022-08-17T02:37:24.486Z,3.87
2022-08-17T02:39:54.141Z,3.63
2022-08-17T02:42:28.536Z,3.77
2022-08-17T02:44:56.640Z,3.60
2022-08-17T02:47:24.781Z,3.50
2022-08-17T02:49:55.669Z,4.40
2022-08-17T02:52:43.139Z,4.00
2022-08-17T02:55:15.825Z,3.70
2022-08-17T02:57:44.536Z,3.90
2022-08-17T03:00:18.961Z,4.20
2022-08-17T03:02:47.155Z,4.67
2022-08-17T03:05:18.143Z,4.50
2022-08-17T03:07:46.413Z,3.20
2022-08-17T03:10:16.478Z,3.73
2022-08-17T03:12:45.839Z,3.37
2022-08-17T03:15:24.873Z,3.60
2022-08-17T03:17:53.409Z,2.70
2022-08-17T03:20:22.905Z,3.00
2022-08-17T03:22:54.699Z,2.83
2022-08-17T03:25:34.406Z,3.90
2022-08-17T03:28:03.168Z,3.37
2022-08-17T03:30:31.294Z,3.00
2022-08-17T03:33:01.036Z,3.30
2022-08-17T03:35:32.433Z,2.83
2022-08-17T03:38:01.602Z,2.50
2022-08-17T03:40:55.317Z,2.50
2022-08-17T03:43:22.901Z,2.60
2022-08-17T03:46:10.922Z,2.33
2022-08-17T03:49:15.426Z,2.50
2022-08-17T03:52:01.282Z,3.33
2022-08-17T03:54:46.821Z,2.20
2022-08-17T03:57:16.372Z,2.60
2022-08-17T03:59:44.952Z,2.87
2022-08-17T04:02:18.404Z,2.43
2022-08-17T04:04:46.554Z,2.30
2022-08-17T04:07:14.679Z,2.47
2022-08-17T04:09:43.582Z,2.73
2022-08-17T04:12:15.196Z,2.40
2022-08-17T04:14:53.562Z,2.37
2022-08-17T04:17:25.137Z,2.80
2022-08-17T04:19:54.051Z,2.37
2022-08-17T04:22:31.965Z,2.23
2022-08-17T04:25:04.024Z,2.40
2022-08-17T04:27:32.161Z,2.57
2022-08-17T04:30:01.624Z,2.23
2022-08-17T04:33:03.783Z,2.20
2022-08-17T04:35:22.712Z,2.80
2022-08-17T04:37:51.269Z,2.40
2022-08-17T04:40:38.467Z,2.83
2022-08-17T04:43:08.700Z,2.67
2022-08-17T04:45:55.295Z,2.83
2022-08-17T04:48:29.647Z,3.10
2022-08-17T04:51:09.775Z,2.83
2022-08-17T04:53:39.159Z,2.20
2022-08-17T04:56:07.869Z,2.70
2022-08-17T04:58:40.274Z,2.13
2022-08-17T05:01:09.933Z,2.53
2022-08-17T05:03:38.389Z,2.37
2022-08-17T05:06:07.179Z,2.47
2022-08-17T05:08:35.961Z,2.67
2022-08-17T05:11:04.217Z,2.50
2022-08-17T05:13:32.669Z,2.30
2022-08-17T05:16:03.349Z,2.23
2022-08-17T05:18:33.310Z,2.10
2022-08-17T05:21:01.469Z,2.53
2022-08-17T05:23:41.769Z,2.63
2022-08-17T05:26:25.777Z,1.77
2022-08-17T05:28:57.160Z,2.67
2022-08-17T05:31:29.369Z,2.00
2022-08-17T05:33:59.290Z,2.33
2022-08-17T05:36:43.093Z,2.30
2022-08-17T05:39:15.776Z,2.47
2022-08-17T05:41:45.781Z,1.73
2022-08-17T05:44:13.921Z,2.50
2022-08-17T05:46:48.503Z,2.33
2022-08-17T05:49:20.308Z,2.33
2022-08-17T05:52:09.684Z,2.73
2022-08-17T05:54:49.149Z,1.93
2022-08-17T05:57:34.039Z,2.37
2022-08-17T06:00:15.183Z,2.57
2022-08-17T06:02:55.598Z,2.77
2022-08-17T06:05:43.240Z,2.90
2022-08-17T06:08:22.878Z,2.50
2022-08-17T06:10:59.893Z,3.00
2022-08-17T06:13:40.145Z,2.10
2022-08-17T06:16:33.270Z,3.47
2022-08-17T06:19:05.282Z,3.00
2022-08-17T06:21:40.423Z,3.17
2022-08-17T06:24:22.902Z,3.40
2022-08-17T06:26:51.490Z,2.90
2022-08-17T06:29:38.643Z,3.47
2022-08-17T06:32:10.414Z,3.30
2022-08-17T06:34:43.612Z,2.63
2022-08-17T06:37:31.398Z,4.13
2022-08-17T06:40:09.275Z,3.50
2022-08-17T06:43:02.358Z,4.10
2022-08-17T06:45:38.832Z,3.13
2022-08-17T06:48:13.951Z,4.30
2022-08-17T06:50:48.752Z,4.20
2022-08-17T06:53:25.065Z,3.53
2022-08-17T06:55:59.835Z,3.90
2022-08-17T06:58:31.249Z,3.83
2022-08-17T07:01:05.387Z,3.50
2022-08-17T07:03:39.702Z,4.10
2022-08-17T07:06:14.041Z,3.90
2022-08-17T07:08:56.891Z,4.20
2022-08-17T07:11:30.240Z,4.00
2022-08-17T07:14:07.216Z,3.80
2022-08-17T07:16:43.988Z,4.33
2022-08-17T07:19:12.895Z,4.03
2022-08-17T07:21:50.057Z,4.20
2022-08-17T07:24:30.856Z,4.00
2022-08-17T07:27:09.277Z,3.97
2022-08-17T07:29:41.710Z,4.13
2022-08-17T07:32:12.225Z,5.07
2022-08-17T07:35:02.881Z,5.17
2022-08-17T07:37:33.322Z,4.80
2022-08-17T07:40:17.269Z,5.10
2022-08-17T07:43:06.393Z,4.77
2022-08-17T07:45:53.832Z,4.87
2022-08-17T07:48:24.362Z,5.37
2022-08-17T07:50:53.133Z,5.30
2022-08-17T07:53:24.125Z,5.90
2022-08-17T07:55:54.708Z,5.73
2022-08-17T07:58:24.564Z,6.30
2022-08-17T08:01:07.744Z,6.60
2022-08-17T08:03:43.860Z,6.43
2022-08-17T08:06:22.406Z,6.70
2022-08-17T08:08:53.641Z,7.33
2022-08-17T08:11:34.130Z,7.00
2022-08-17T08:14:22.403Z,7.20
2022-08-17T08:17:00.089Z,6.80
2022-08-17T08:19:29.378Z,8.27
2022-08-17T08:22:06.043Z,8.20
2022-08-17T08:24:55.269Z,8.23
2022-08-17T08:27:35.720Z,7.77
2022-08-17T08:30:09.892Z,7.63
2022-08-17T08:33:00.557Z,7.20
2022-08-17T08:35:33.774Z,9.10
2022-08-17T08:38:28.368Z,8.50
2022-08-17T08:41:08.790Z,8.77
2022-08-17T08:43:49.577Z,8.50
2022-08-17T08:46:29.929Z,7.97
2022-08-17T08:50:02.056Z,7.87
2022-08-17T08:52:36.290Z,8.37
2022-08-17T08:55:11.589Z,7.93
2022-08-17T08:57:46.276Z,8.07
2022-08-17T09:00:30.460Z,7.73
2022-08-17T09:03:42.583Z,7.23
2022-08-17T09:06:37.765Z,7.97
2022-08-17T09:09:18.852Z,7.53
2022-08-17T09:12:02.850Z,8.80
2022-08-17T09:14:45.008Z,8.20
2022-08-17T09:17:20.853Z,7.83
2022-08-17T09:20:06.853Z,8.40
2022-08-17T09:22:40.362Z,8.20
2022-08-17T09:25:12.030Z,9.17
2022-08-17T09:27:51.725Z,8.10
2022-08-17T09:30:21.190Z,9.27
2022-08-17T09:32:58.836Z,7.73
2022-08-17T09:35:37.341Z,7.80
2022-08-17T09:38:15.958Z,7.97
2022-08-17T09:40:51.655Z,8.13
2022-08-17T09:43:28.664Z,8.17
2022-08-17T09:46:01.850Z,8.20
2022-08-17T09:48:37.852Z,7.00
2022-08-17T09:51:11.841Z,7.60
2022-08-17T09:53:40.615Z,6.97
2022-08-17T09:56:26.240Z,7.70
2022-08-17T09:59:16.813Z,7.20
2022-08-17T10:01:51.840Z,8.30
2022-08-17T10:04:35.457Z,8.70
2022-08-17T10:07:08.182Z,8.20
2022-08-17T10:09:57.347Z,7.97
2022-08-17T10:12:39.479Z,7.73
2022-08-17T10:15:29.690Z,8.70
2022-08-17T10:18:23.604Z,8.00
2022-08-17T10:21:14.622Z,7.50
2022-08-17T10:24:02.635Z,7.73
2022-08-17T10:26:46.168Z,8.07
2022-08-17T10:29:29.112Z,7.47
2022-08-17T10:32:04.135Z,6.80
2022-08-17T10:34:55.937Z,7.27
2022-08-17T10:38:01.143Z,7.47
2022-08-17T10:40:36.510Z,7.70
2022-08-17T10:43:20.293Z,8.03
2022-08-17T10:46:14.606Z,6.80
2022-08-17T10:48:42.708Z,6.57
2022-08-17T10:51:13.120Z,6.20
2022-08-17T10:54:02.127Z,6.57
2022-08-17T10:56:50.327Z,7.13
2022-08-17T10:59:50.819Z,6.70
2022-08-17T11:02:27.979Z,6.73
2022-08-17T11:05:10.146Z,6.43
2022-08-17T11:07:52.343Z,7.10
2022-08-17T11:10:42.122Z,7.40
2022-08-17T11:13:23.172Z,7.30
2022-08-17T11:16:06.142Z,6.97
2022-08-17T11:19:09.833Z,8.07
2022-08-17T11:22:12.046Z,7.93
2022-08-17T11:24:44.845Z,8.00
2022-08-17T11:27:26.049Z,7.77
2022-08-17T11:30:01.748Z,7.30
2022-08-17T11:32:47.443Z,7.53
2022-08-17T11:35:36.093Z,9.40
2022-08-17T11:38:17.997Z,8.33
2022-08-17T11:41:10.338Z,7.93
2022-08-17T11:44:18.607Z,8.20
2022-08-17T11:47:27.069Z,7.70
2022-08-17T11:50:34.820Z,8.10
2022-08-17T11:53:03.028Z,8.60
2022-08-17T11:56:04.041Z,8.60
2022-08-17T11:58:40.971Z,9.03
2022-08-17T12:01:13.531Z,8.27
2022-08-17T12:03:55.460Z,8.67
2022-08-17T12:06:51.148Z,8.67
2022-08-17T12:09:22.416Z,9.23
2022-08-17T12:12:12.626Z,9.00
2022-08-17T12:18:08.203Z,9.00
2022-08-17T12:20:40.987Z,8.77
2022-08-17T12:23:15.731Z,10.30
2022-08-17T12:25:49.360Z,8.90
2022-08-17T12:28:25.710Z,10.60
2022-08-17T12:30:54.656Z,11.70
2022-08-17T12:33:28.856Z,10.00
2022-08-17T12:36:01.120Z,12.30
2022-08-17T12:38:32.949Z,10.23
2022-08-17T12:41:24.371Z,10.83
2022-08-17T12:44:02.191Z,11.13
2022-08-17T12:46:33.678Z,12.10
2022-08-17T12:49:27.408Z,11.53
2022-08-17T12:52:05.726Z,12.50
2022-08-17T12:54:41.761Z,13.17
2022-08-17T12:57:14.571Z,13.77
2022-08-17T12:59:46.415Z,13.30
2022-08-17T13:02:28.297Z,12.93
2022-08-17T13:05:00.381Z,14.90
2022-08-17T13:07:30.830Z,12.73
2022-08-17T13:09:58.995Z,14.20
2022-08-17T13:12:29.298Z,13.37
2022-08-17T13:14:57.994Z,14.53
2022-08-17T13:17:31.783Z,13.60
2022-08-17T13:20:01.548Z,14.83
2022-08-17T13:22:32.473Z,13.67
2022-08-17T13:25:05.476Z,13.27
2022-08-17T13:27:34.782Z,12.80
2022-08-17T13:30:08.391Z,13.17
2022-08-17T13:32:41.285Z,12.97
2022-08-17T13:35:39.755Z,12.13
2022-08-17T13:38:10.652Z,11.97
2022-08-17T13:40:50.197Z,13.07
2022-08-17T13:43:44.711Z,12.30
2022-08-17T13:46:21.837Z,13.10
2022-08-17T13:49:00.899Z,11.50
2022-08-17T13:51:35.956Z,11.60
2022-08-17T13:54:25.440Z,12.10
2022-08-17T13:57:05.247Z,11.47
2022-08-17T13:59:54.636Z,11.30
2022-08-17T14:02:28.592Z,11.60
2022-08-17T14:04:58.493Z,10.37
2022-08-17T14:07:37.175Z,10.50
2022-08-17T14:10:12.738Z,10.00
2022-08-17T14:12:42.784Z,9.73
2022-08-17T14:15:13.096Z,10.30
2022-08-17T14:17:41.252Z,10.37
2022-08-17T14:20:13.126Z,9.50
2022-08-17T14:22:45.778Z,10.77
2022-08-17T14:25:16.836Z,9.93
2022-08-17T14:27:52.114Z,11.33
2022-08-17T14:30:22.848Z,11.00
2022-08-17T14:32:52.036Z,11.53
2022-08-17T14:35:23.095Z,10.97
2022-08-17T14:37:53.109Z,11.57
2022-08-17T14:40:24.958Z,12.67
2022-08-17T14:42:55.261Z,12.40
2022-08-17T14:45:30.023Z,11.70
2022-08-17T14:48:03.995Z,11.57
2022-08-17T14:50:35.326Z,11.67
2022-08-17T14:53:06.685Z,12.07
2022-08-17T14:55:35.477Z,10.93
2022-08-17T14:58:04.266Z,11.07
2022-08-17T15:00:32.533Z,10.43
2022-08-17T15:03:02.506Z,9.60
2022-08-17T15:05:32.513Z,8.80
2022-08-17T15:08:01.554Z,9.47
2022-08-17T15:10:31.886Z,8.90
2022-08-17T15:13:00.635Z,9.77
2022-08-17T15:15:29.578Z,8.00
2022-08-17T15:17:59.604Z,7.30
2022-08-17T15:20:30.114Z,7.50
2022-08-17T15:22:59.154Z,7.00
2022-08-17T15:25:29.361Z,6.33
2022-08-17T15:27:59.391Z,6.80
2022-08-17T15:30:28.008Z,6.20
2022-08-17T15:32:57.177Z,4.10
2022-08-17T15:35:29.079Z,4.00
2022-08-17T15:38:04.918Z,4.77
2022-08-17T15:40:34.953Z,5.10
2022-08-17T15:43:07.867Z,4.53
2022-08-17T15:45:36.058Z,5.17
2022-08-17T15:48:04.936Z,4.97
2022-08-17T15:50:33.169Z,4.93
2022-08-17T15:53:02.397Z,5.83
2022-08-17T15:55:32.897Z,5.80
2022-08-17T15:58:01.793Z,6.83
2022-08-17T16:00:31.715Z,5.60
2022-08-17T16:03:44.935Z,5.37
2022-08-17T16:05:52.683Z,6.43
2022-08-17T16:08:21.522Z,6.90
2022-08-17T16:10:50.455Z,6.93
2022-08-17T16:13:18.969Z,6.33
2022-08-17T16:15:56.852Z,6.20
2022-08-17T16:18:30.720Z,7.03
2022-08-17T16:21:24.831Z,6.90
2022-08-17T16:24:18.335Z,7.50
2022-08-17T16:26:46.369Z,8.03
2022-08-17T16:29:14.563Z,6.87
2022-08-17T16:31:44.024Z,5.33
2022-08-17T16:34:17.388Z,5.73
2022-08-17T16:36:55.029Z,4.90
2022-08-17T16:39:28.970Z,4.90
2022-08-17T16:41:57.718Z,4.27
2022-08-17T16:44:28.943Z,4.40
2022-08-17T16:46:58.697Z,4.47
2022-08-17T16:49:37.009Z,4.90
2022-08-17T16:52:09.664Z,5.50
2022-08-17T16:54:40.573Z,4.93
2022-08-17T16:57:08.682Z,4.83
2022-08-17T16:59:42.134Z,5.47
2022-08-17T17:02:15.345Z,4.60
2022-08-17T17:06:03.577Z,5.43
2022-08-17T17:08:40.710Z,5.50
2022-08-17T17:11:17.863Z,4.93
2022-08-17T17:13:53.993Z,5.70
2022-08-17T17:16:29.457Z,5.13
2022-08-17T17:19:09.194Z,4.30
2022-08-17T17:21:44.948Z,4.80
2022-08-17T17:24:18.121Z,5.30
2022-08-17T17:26:58.618Z,5.40
2022-08-17T17:29:48.174Z,5.60
2022-08-17T17:32:22.076Z,4.90
2022-08-17T17:35:00.688Z,4.93
2022-08-17T17:37:34.847Z,5.13
2022-08-17T17:40:09.385Z,5.63
2022-08-17T17:42:41.716Z,5.00
2022-08-17T17:45:17.268Z,5.33
2022-08-17T17:47:46.341Z,5.50
2022-08-17T17:50:19.019Z,5.30
2022-08-17T17:52:56.167Z,5.40
2022-08-17T17:55:34.660Z,4.80
2022-08-17T17:58:13.339Z,5.10
2022-08-17T18:00:48.485Z,3.70
2022-08-17T18:03:30.951Z,4.60
2022-08-17T18:06:13.504Z,4.77
2022-08-17T18:09:02.643Z,4.50
2022-08-17T18:11:59.048Z,3.63
2022-08-17T18:14:39.462Z,4.20
2022-08-17T18:17:07.867Z,3.97
2022-08-17T18:19:39.971Z,4.60
2022-08-17T18:22:14.399Z,4.33
2022-08-17T18:24:45.137Z,4.90
2022-08-17T18:27:26.649Z,4.37
2022-08-17T18:29:56.527Z,4.70
2022-08-17T18:32:28.663Z,5.37
2022-08-17T18:35:00.065Z,5.33
2022-08-17T18:37:38.421Z,5.50
2022-08-17T18:40:30.822Z,5.43
2022-08-17T18:43:06.982Z,5.70
2022-08-17T18:45:39.369Z,5.17
2022-08-17T18:48:19.548Z,5.30
2022-08-17T18:50:47.909Z,5.30
2022-08-17T18:53:36.088Z,5.90
2022-08-17T18:56:25.640Z,6.30
2022-08-17T18:59:06.478Z,6.70
2022-08-17T19:01:52.661Z,6.07
2022-08-17T19:04:37.451Z,6.03
2022-08-17T19:07:25.644Z,7.53
2022-08-17T19:09:59.548Z,7.20
2022-08-17T19:12:34.021Z,8.00
2022-08-17T19:15:02.943Z,6.40
2022-08-17T19:17:38.604Z,7.67
2022-08-17T19:20:15.454Z,7.50
2022-08-17T19:22:57.351Z,6.90
2022-08-17T19:25:31.605Z,7.37
2022-08-17T19:28:12.604Z,7.50
2022-08-17T19:30:51.124Z,7.70
2022-08-17T19:33:19.619Z,8.23
2022-08-17T19:35:53.648Z,7.70
2022-08-17T19:38:37.063Z,8.43
2022-08-17T19:41:16.059Z,8.80
2022-08-17T19:43:54.531Z,8.10
2022-08-17T19:46:31.100Z,7.10
2022-08-17T19:49:11.174Z,7.40
2022-08-17T19:51:46.669Z,7.47
2022-08-17T19:54:23.634Z,8.30
2022-08-17T19:57:03.675Z,8.77
2022-08-17T19:59:48.863Z,8.30
2022-08-17T20:02:29.668Z,8.03
2022-08-17T20:05:02.769Z,9.20
2022-08-17T20:07:50.017Z,9.13
2022-08-17T20:10:33.379Z,8.97
2022-08-17T20:13:07.081Z,9.03
2022-08-17T20:15:37.792Z,10.30
2022-08-17T20:18:13.544Z,9.80
2022-08-17T20:20:48.386Z,10.07
2022-08-17T20:23:31.065Z,8.37
2022-08-17T20:26:10.471Z,8.07
2022-08-17T20:29:08.304Z,9.60
2022-08-17T20:31:47.560Z,8.37
2022-08-17T20:34:37.326Z,8.10
2022-08-17T20:37:08.903Z,8.80
2022-08-17T20:39:42.489Z,7.70
2022-08-17T20:42:31.329Z,7.87
2022-08-17T20:45:05.423Z,7.33
2022-08-17T20:47:36.725Z,7.37
2022-08-17T20:50:09.171Z,7.40
2022-08-17T20:52:52.985Z,7.67
2022-08-17T20:55:58.030Z,7.70
2022-08-17T20:58:53.797Z,8.77
2022-08-17T21:01:38.876Z,8.77
2022-08-17T21:04:47.612Z,8.93
2022-08-17T21:07:30.165Z,8.20
2022-08-17T21:10:16.774Z,9.03
2022-08-17T21:12:48.436Z,8.23
2022-08-17T21:15:31.503Z,8.03
2022-08-17T21:18:10.545Z,8.70
2022-08-17T21:20:46.947Z,9.53
2022-08-17T21:23:42.057Z,9.10
2022-08-17T21:26:25.565Z,10.40
2022-08-17T21:29:32.286Z,9.30
2022-08-17T21:32:24.239Z,10.73
2022-08-17T21:35:29.943Z,11.13
2022-08-17T21:38:03.898Z,12.23
2022-08-17T21:40:34.212Z,11.43
2022-08-17T21:43:18.028Z,12.60
2022-08-17T21:45:57.539Z,14.17
2022-08-17T21:48:27.738Z,13.60
2022-08-17T21:51:04.686Z,14.67
2022-08-17T21:53:40.400Z,14.07
2022-08-17T21:56:09.300Z,14.57
2022-08-17T21:58:40.096Z,14.50
2022-08-17T22:01:21.831Z,14.37
2022-08-17T22:04:00.132Z,13.93
2022-08-17T22:06:34.168Z,14.13
2022-08-17T22:09:14.772Z,15.87
2022-08-17T22:12:06.989Z,14.67
2022-08-17T22:14:51.568Z,14.17
2022-08-17T22:17:24.648Z,14.07
2022-08-17T22:19:54.903Z,14.30
2022-08-17T22:22:32.456Z,14.03
2022-08-17T22:25:02.896Z,13.40
2022-08-17T22:27:49.691Z,15.07
2022-08-17T22:30:26.030Z,14.20
2022-08-17T22:32:54.583Z,13.80
2022-08-17T22:35:37.872Z,13.57
2022-08-17T22:38:35.116Z,13.43
2022-08-17T22:41:34.607Z,13.60
2022-08-17T22:44:14.103Z,13.40
2022-08-17T22:46:52.905Z,13.77
2022-08-17T22:49:27.361Z,14.93
2022-08-17T22:52:07.406Z,14.73
2022-08-17T22:54:54.501Z,13.60
2022-08-17T22:57:41.903Z,15.40
2022-08-17T23:00:37.288Z,15.03
2022-08-17T23:03:15.030Z,15.57
2022-08-17T23:05:46.295Z,16.90
2022-08-17T23:08:21.040Z,15.30
2022-08-17T23:10:50.762Z,14.20
2022-08-17T23:13:21.217Z,15.47
2022-08-17T23:15:51.624Z,17.57
2022-08-17T23:18:19.789Z,14.27
2022-08-17T23:20:47.984Z,14.73
2022-08-17T23:23:18.750Z,14.00
2022-08-17T23:25:50.180Z,15.70
2022-08-17T23:28:18.303Z,14.20
2022-08-17T23:30:48.435Z,15.37
2022-08-17T23:33:21.270Z,14.60
2022-08-17T23:35:49.400Z,15.67
2022-08-17T23:38:17.522Z,14.20
2022-08-17T23:40:45.684Z,13.50
2022-08-17T23:43:24.677Z,15.77
2022-08-17T23:45:55.046Z,13.37
2022-08-17T23:48:35.416Z,15.93
2022-08-17T23:51:08.693Z,14.70
2022-08-17T23:53:38.663Z,14.17
2022-08-17T23:56:11.068Z,15.00
2022-08-17T23:58:42.986Z,15.53
